Pagina principale
METAR-TAF:

METAR-TAF

Aeroporti :

Aeroporto di Liegi-Bierset

Liegi, Belgio

latitudine: 50-39N, longitudine: 005-27E, altezza: 186 m

Osservazione

Il bollettino è stato emesso 26 minuti fa, alle 23:50 UTC
Vento 4 kt da est/sud-est
Temperature -1°C
Umidità 86%
Pressione 1011 hPa
Visibilità: 9000 m

METAR: EBLG 202350Z 12004KT 9000 NSC M01/M03 Q1011 NOSIG

Ora: 01:16 (00:16 UTC)

Previsione

Il bollettino è stato emesso 59 minuti fa, alle 23:17 UTC
Previsione valida dal 21 alle 00 UTC al 22 alle 06 UTC
Vento 3 kt da est
Visibilità: 7000 m
Temporaneamente
dal 21 alle 00 UTC al 21 alle 09 UTC
Visibilità: 3000 m
foschia

TAF: EBLG 202317Z 2100/2206 08003KT 7000 NSC TEMPO 2100/2109 3000 BR

Osservazioni e previsioni meteorologiche di più di 4000 aeroporti (messaggi METAR e TAF).

Le stazioni disponibili sono rappresentate dai dischi gialli e rossi sulla carta.

Puntare il mouse per vedere il nome della stazione.

Clicca sopra per visualizzare le osservazioni e previsioni meteorologiche.

Per cambiare la mappa : fare clic sui pulsanti verdi con una croce nera per ingrandire, il pulsante verde con un trattino per diminuire, o sulla freccia verde per le mappe adiacenti.


METAR-TAF: